sensor_id;sensor_type;location;lat;lon;timestamp;P1;durP1;ratioP1;P2;durP2;ratioP2
16304;SDS011;8261;47.678;-122.174;2022-07-01T00:00:36;2.80;;;1.37;;
16304;SDS011;8261;47.678;-122.174;2022-07-01T00:03:14;1.80;;;1.37;;
16304;SDS011;8261;47.678;-122.174;2022-07-01T00:05:47;3.23;;;1.23;;
16304;SDS011;8261;47.678;-122.174;2022-07-01T00:08:35;2.17;;;1.10;;
16304;SDS011;8261;47.678;-122.174;2022-07-01T00:11:22;2.73;;;1.20;;
16304;SDS011;8261;47.678;-122.174;2022-07-01T00:14:32;1.23;;;1.10;;
16304;SDS011;8261;47.678;-122.174;2022-07-01T00:17:40;1.67;;;1.10;;
16304;SDS011;8261;47.678;-122.174;2022-07-01T00:20:11;2.40;;;1.20;;
16304;SDS011;8261;47.678;-122.174;2022-07-01T00:22:44;3.37;;;1.30;;
16304;SDS011;8261;47.678;-122.174;2022-07-01T00:25:17;2.93;;;1.30;;
16304;SDS011;8261;47.678;-122.174;2022-07-01T00:28:02;1.50;;;1.23;;
16304;SDS011;8261;47.678;-122.174;2022-07-01T00:30:34;1.80;;;1.40;;
16304;SDS011;8261;47.678;-122.174;2022-07-01T00:33:09;1.90;;;1.20;;
16304;SDS011;8261;47.678;-122.174;2022-07-01T00:35:41;3.73;;;1.63;;
16304;SDS011;8261;47.678;-122.174;2022-07-01T00:38:18;1.20;;;1.10;;
16304;SDS011;8261;47.678;-122.174;2022-07-01T00:40:52;2.43;;;1.30;;
16304;SDS011;8261;47.678;-122.174;2022-07-01T00:43:27;1.23;;;1.10;;
16304;SDS011;8261;47.678;-122.174;2022-07-01T00:46:20;3.20;;;1.10;;
16304;SDS011;8261;47.678;-122.174;2022-07-01T00:48:58;2.23;;;1.47;;
16304;SDS011;8261;47.678;-122.174;2022-07-01T00:51:32;1.50;;;1.30;;
16304;SDS011;8261;47.678;-122.174;2022-07-01T00:54:04;2.13;;;1.40;;
16304;SDS011;8261;47.678;-122.174;2022-07-01T00:56:37;1.80;;;1.10;;
16304;SDS011;8261;47.678;-122.174;2022-07-01T00:59:09;2.90;;;1.20;;
16304;SDS011;8261;47.678;-122.174;2022-07-01T01:01:41;3.67;;;1.40;;
16304;SDS011;8261;47.678;-122.174;2022-07-01T01:04:20;2.13;;;1.60;;
16304;SDS011;8261;47.678;-122.174;2022-07-01T01:06:51;1.50;;;1.40;;
16304;SDS011;8261;47.678;-122.174;2022-07-01T01:09:45;2.13;;;1.53;;
16304;SDS011;8261;47.678;-122.174;2022-07-01T01:12:17;1.50;;;1.30;;
16304;SDS011;8261;47.678;-122.174;2022-07-01T01:14:49;2.10;;;1.30;;
16304;SDS011;8261;47.678;-122.174;2022-07-01T01:17:22;2.40;;;1.20;;
16304;SDS011;8261;47.678;-122.174;2022-07-01T01:19:56;1.27;;;1.07;;
16304;SDS011;8261;47.678;-122.174;2022-07-01T01:22:29;1.40;;;1.10;;
16304;SDS011;8261;47.678;-122.174;2022-07-01T01:24:59;3.80;;;1.23;;
16304;SDS011;8261;47.678;-122.174;2022-07-01T01:27:33;1.93;;;1.07;;
16304;SDS011;8261;47.678;-122.174;2022-07-01T01:30:06;2.00;;;0.90;;
16304;SDS011;8261;47.678;-122.174;2022-07-01T01:32:40;1.13;;;0.97;;
16304;SDS011;8261;47.678;-122.174;2022-07-01T01:35:12;1.40;;;0.97;;
16304;SDS011;8261;47.678;-122.174;2022-07-01T01:37:46;3.63;;;1.17;;
16304;SDS011;8261;47.678;-122.174;2022-07-01T01:40:18;1.60;;;0.80;;
16304;SDS011;8261;47.678;-122.174;2022-07-01T01:42:50;0.60;;;0.60;;
16304;SDS011;8261;47.678;-122.174;2022-07-01T01:45:22;1.37;;;0.80;;
16304;SDS011;8261;47.678;-122.174;2022-07-01T01:47:53;1.80;;;0.87;;
16304;SDS011;8261;47.678;-122.174;2022-07-01T01:50:25;0.93;;;0.80;;
16304;SDS011;8261;47.678;-122.174;2022-07-01T01:52:58;1.70;;;0.97;;
16304;SDS011;8261;47.678;-122.174;2022-07-01T01:55:29;1.63;;;0.90;;
16304;SDS011;8261;47.678;-122.174;2022-07-01T01:58:03;3.70;;;0.97;;
16304;SDS011;8261;47.678;-122.174;2022-07-01T02:00:34;1.00;;;0.90;;
16304;SDS011;8261;47.678;-122.174;2022-07-01T02:03:07;1.40;;;0.80;;
16304;SDS011;8261;47.678;-122.174;2022-07-01T02:05:52;1.07;;;0.90;;
16304;SDS011;8261;47.678;-122.174;2022-07-01T02:08:27;1.80;;;0.80;;
16304;SDS011;8261;47.678;-122.174;2022-07-01T02:10:59;0.60;;;0.60;;
16304;SDS011;8261;47.678;-122.174;2022-07-01T02:13:32;0.60;;;0.60;;
16304;SDS011;8261;47.678;-122.174;2022-07-01T02:16:04;1.60;;;0.70;;
16304;SDS011;8261;47.678;-122.174;2022-07-01T02:18:53;0.70;;;0.60;;
16304;SDS011;8261;47.678;-122.174;2022-07-01T02:21:28;0.63;;;0.60;;
16304;SDS011;8261;47.678;-122.174;2022-07-01T02:34:40;0.87;;;0.73;;
16304;SDS011;8261;47.678;-122.174;2022-07-01T02:37:13;1.03;;;0.60;;
16304;SDS011;8261;47.678;-122.174;2022-07-01T02:39:49;0.70;;;0.70;;
16304;SDS011;8261;47.678;-122.174;2022-07-01T02:42:24;1.53;;;1.07;;
16304;SDS011;8261;47.678;-122.174;2022-07-01T02:45:00;0.90;;;0.70;;
16304;SDS011;8261;47.678;-122.174;2022-07-01T02:47:39;1.47;;;0.80;;
16304;SDS011;8261;47.678;-122.174;2022-07-01T02:50:17;1.03;;;0.93;;
16304;SDS011;8261;47.678;-122.174;2022-07-01T02:53:42;0.80;;;0.80;;
16304;SDS011;8261;47.678;-122.174;2022-07-01T02:56:50;1.20;;;1.00;;
16304;SDS011;8261;47.678;-122.174;2022-07-01T02:59:51;1.10;;;1.00;;
16304;SDS011;8261;47.678;-122.174;2022-07-01T03:24:25;1.33;;;0.60;;
16304;SDS011;8261;47.678;-122.174;2022-07-01T03:27:05;0.80;;;0.70;;
16304;SDS011;8261;47.678;-122.174;2022-07-01T03:29:56;0.60;;;0.60;;
16304;SDS011;8261;47.678;-122.174;2022-07-01T03:32:55;1.30;;;0.93;;
16304;SDS011;8261;47.678;-122.174;2022-07-01T03:35:28;1.90;;;0.70;;
16304;SDS011;8261;47.678;-122.174;2022-07-01T03:38:16;0.93;;;0.70;;
16304;SDS011;8261;47.678;-122.174;2022-07-01T03:40:53;1.43;;;0.90;;
16304;SDS011;8261;47.678;-122.174;2022-07-01T03:43:25;2.00;;;0.83;;
16304;SDS011;8261;47.678;-122.174;2022-07-01T03:46:00;2.00;;;0.90;;
16304;SDS011;8261;47.678;-122.174;2022-07-01T03:48:33;0.90;;;0.70;;
16304;SDS011;8261;47.678;-122.174;2022-07-01T03:51:08;0.70;;;0.70;;
16304;SDS011;8261;47.678;-122.174;2022-07-01T03:53:41;1.03;;;0.80;;
16304;SDS011;8261;47.678;-122.174;2022-07-01T03:56:31;0.90;;;0.80;;
16304;SDS011;8261;47.678;-122.174;2022-07-01T03:59:03;2.03;;;1.00;;
16304;SDS011;8261;47.678;-122.174;2022-07-01T04:01:47;1.60;;;0.90;;
16304;SDS011;8261;47.678;-122.174;2022-07-01T04:04:19;1.27;;;1.00;;
16304;SDS011;8261;47.678;-122.174;2022-07-01T04:06:53;0.83;;;0.83;;
16304;SDS011;8261;47.678;-122.174;2022-07-01T04:09:29;1.50;;;1.00;;
16304;SDS011;8261;47.678;-122.174;2022-07-01T04:12:08;1.47;;;0.93;;
16304;SDS011;8261;47.678;-122.174;2022-07-01T04:14:50;2.13;;;0.83;;
16304;SDS011;8261;47.678;-122.174;2022-07-01T04:17:22;1.83;;;1.07;;
16304;SDS011;8261;47.678;-122.174;2022-07-01T04:20:15;1.40;;;0.90;;
16304;SDS011;8261;47.678;-122.174;2022-07-01T04:22:47;1.37;;;1.17;;
16304;SDS011;8261;47.678;-122.174;2022-07-01T04:25:19;2.50;;;1.07;;
16304;SDS011;8261;47.678;-122.174;2022-07-01T04:30:46;1.17;;;1.07;;
16304;SDS011;8261;47.678;-122.174;2022-07-01T04:37:00;2.73;;;1.00;;
16304;SDS011;8261;47.678;-122.174;2022-07-01T04:39:49;1.60;;;1.00;;
16304;SDS011;8261;47.678;-122.174;2022-07-01T04:42:58;1.40;;;1.00;;
16304;SDS011;8261;47.678;-122.174;2022-07-01T04:49:22;1.30;;;1.20;;
16304;SDS011;8261;47.678;-122.174;2022-07-01T04:51:53;1.17;;;1.00;;
16304;SDS011;8261;47.678;-122.174;2022-07-01T04:54:26;1.00;;;1.00;;
16304;SDS011;8261;47.678;-122.174;2022-07-01T04:56:59;1.13;;;1.03;;
16304;SDS011;8261;47.678;-122.174;2022-07-01T04:59:32;2.67;;;0.83;;
16304;SDS011;8261;47.678;-122.174;2022-07-01T05:02:08;1.40;;;1.00;;
16304;SDS011;8261;47.678;-122.174;2022-07-01T05:04:44;2.93;;;1.37;;
16304;SDS011;8261;47.678;-122.174;2022-07-01T05:07:27;0.83;;;0.83;;
16304;SDS011;8261;47.678;-122.174;2022-07-01T05:10:18;1.13;;;1.03;;
16304;SDS011;8261;47.678;-122.174;2022-07-01T05:12:53;1.23;;;1.00;;
16304;SDS011;8261;47.678;-122.174;2022-07-01T05:15:26;1.43;;;1.10;;
16304;SDS011;8261;47.678;-122.174;2022-07-01T05:18:11;1.63;;;1.20;;
16304;SDS011;8261;47.678;-122.174;2022-07-01T05:21:21;1.27;;;1.17;;
16304;SDS011;8261;47.678;-122.174;2022-07-01T05:24:09;2.00;;;1.30;;
16304;SDS011;8261;47.678;-122.174;2022-07-01T05:26:42;1.40;;;1.30;;
16304;SDS011;8261;47.678;-122.174;2022-07-01T05:29:15;2.83;;;1.23;;
16304;SDS011;8261;47.678;-122.174;2022-07-01T05:35:35;2.53;;;1.50;;
16304;SDS011;8261;47.678;-122.174;2022-07-01T05:38:11;2.07;;;1.40;;
16304;SDS011;8261;47.678;-122.174;2022-07-01T05:40:43;1.20;;;1.10;;
16304;SDS011;8261;47.678;-122.174;2022-07-01T05:43:19;1.50;;;1.30;;
16304;SDS011;8261;47.678;-122.174;2022-07-01T05:46:02;1.63;;;1.10;;
16304;SDS011;8261;47.678;-122.174;2022-07-01T05:48:47;1.57;;;1.07;;
16304;SDS011;8261;47.678;-122.174;2022-07-01T05:51:21;1.57;;;1.30;;
16304;SDS011;8261;47.678;-122.174;2022-07-01T05:53:58;1.07;;;0.90;;
16304;SDS011;8261;47.678;-122.174;2022-07-01T05:56:32;2.50;;;1.37;;
16304;SDS011;8261;47.678;-122.174;2022-07-01T05:59:05;1.93;;;1.20;;
16304;SDS011;8261;47.678;-122.174;2022-07-01T06:01:39;1.10;;;1.00;;
16304;SDS011;8261;47.678;-122.174;2022-07-01T06:04:20;1.33;;;1.13;;
16304;SDS011;8261;47.678;-122.174;2022-07-01T06:06:54;1.20;;;1.10;;
16304;SDS011;8261;47.678;-122.174;2022-07-01T06:12:26;1.80;;;1.20;;
16304;SDS011;8261;47.678;-122.174;2022-07-01T06:15:00;1.47;;;1.20;;
16304;SDS011;8261;47.678;-122.174;2022-07-01T06:17:32;1.40;;;1.20;;
16304;SDS011;8261;47.678;-122.174;2022-07-01T06:20:10;4.93;;;1.30;;
16304;SDS011;8261;47.678;-122.174;2022-07-01T06:22:56;1.83;;;1.23;;
16304;SDS011;8261;47.678;-122.174;2022-07-01T06:25:46;2.00;;;1.30;;
16304;SDS011;8261;47.678;-122.174;2022-07-01T06:28:27;5.03;;;1.50;;
16304;SDS011;8261;47.678;-122.174;2022-07-01T06:31:01;1.60;;;1.10;;
16304;SDS011;8261;47.678;-122.174;2022-07-01T06:33:39;1.87;;;1.30;;
16304;SDS011;8261;47.678;-122.174;2022-07-01T06:36:21;1.73;;;1.20;;
16304;SDS011;8261;47.678;-122.174;2022-07-01T06:38:56;2.43;;;1.37;;
16304;SDS011;8261;47.678;-122.174;2022-07-01T06:44:25;1.47;;;1.10;;
16304;SDS011;8261;47.678;-122.174;2022-07-01T06:46:59;1.60;;;1.03;;
16304;SDS011;8261;47.678;-122.174;2022-07-01T06:49:30;2.40;;;1.10;;
16304;SDS011;8261;47.678;-122.174;2022-07-01T06:52:04;3.27;;;1.20;;
16304;SDS011;8261;47.678;-122.174;2022-07-01T06:54:41;2.13;;;1.30;;
16304;SDS011;8261;47.678;-122.174;2022-07-01T06:57:20;1.37;;;1.10;;
16304;SDS011;8261;47.678;-122.174;2022-07-01T06:59:57;2.90;;;1.40;;
16304;SDS011;8261;47.678;-122.174;2022-07-01T07:02:31;1.17;;;1.07;;
16304;SDS011;8261;47.678;-122.174;2022-07-01T07:05:04;1.93;;;1.10;;
16304;SDS011;8261;47.678;-122.174;2022-07-01T07:07:39;1.90;;;1.20;;
16304;SDS011;8261;47.678;-122.174;2022-07-01T07:10:12;2.03;;;1.33;;
16304;SDS011;8261;47.678;-122.174;2022-07-01T07:12:53;1.77;;;1.13;;
16304;SDS011;8261;47.678;-122.174;2022-07-01T07:15:37;1.67;;;1.20;;
16304;SDS011;8261;47.678;-122.174;2022-07-01T07:18:10;1.87;;;1.27;;
16304;SDS011;8261;47.678;-122.174;2022-07-01T07:20:44;2.10;;;1.90;;
16304;SDS011;8261;47.678;-122.174;2022-07-01T07:23:16;2.40;;;1.90;;
16304;SDS011;8261;47.678;-122.174;2022-07-01T07:25:48;3.13;;;1.70;;
16304;SDS011;8261;47.678;-122.174;2022-07-01T07:28:26;3.83;;;1.50;;
16304;SDS011;8261;47.678;-122.174;2022-07-01T07:30:58;4.03;;;1.50;;
16304;SDS011;8261;47.678;-122.174;2022-07-01T07:33:32;2.63;;;1.57;;
16304;SDS011;8261;47.678;-122.174;2022-07-01T07:36:15;1.60;;;1.40;;
16304;SDS011;8261;47.678;-122.174;2022-07-01T07:38:52;1.70;;;1.30;;
16304;SDS011;8261;47.678;-122.174;2022-07-01T07:41:37;2.10;;;1.57;;
16304;SDS011;8261;47.678;-122.174;2022-07-01T07:44:13;2.53;;;1.50;;
16304;SDS011;8261;47.678;-122.174;2022-07-01T07:46:58;1.90;;;1.47;;
16304;SDS011;8261;47.678;-122.174;2022-07-01T07:49:31;3.23;;;1.97;;
16304;SDS011;8261;47.678;-122.174;2022-07-01T07:52:04;1.33;;;1.23;;
16304;SDS011;8261;47.678;-122.174;2022-07-01T07:54:47;1.53;;;1.20;;
16304;SDS011;8261;47.678;-122.174;2022-07-01T07:57:18;1.80;;;1.40;;
16304;SDS011;8261;47.678;-122.174;2022-07-01T08:00:02;1.43;;;1.20;;
16304;SDS011;8261;47.678;-122.174;2022-07-01T08:02:38;3.07;;;1.50;;
16304;SDS011;8261;47.678;-122.174;2022-07-01T08:05:10;2.87;;;1.40;;
16304;SDS011;8261;47.678;-122.174;2022-07-01T08:07:42;1.90;;;1.70;;
16304;SDS011;8261;47.678;-122.174;2022-07-01T08:10:15;3.33;;;1.50;;
16304;SDS011;8261;47.678;-122.174;2022-07-01T08:12:48;4.70;;;1.40;;
16304;SDS011;8261;47.678;-122.174;2022-07-01T08:15:21;2.07;;;1.30;;
16304;SDS011;8261;47.678;-122.174;2022-07-01T08:17:53;3.83;;;1.63;;
16304;SDS011;8261;47.678;-122.174;2022-07-01T08:20:27;2.20;;;1.40;;
16304;SDS011;8261;47.678;-122.174;2022-07-01T08:22:59;1.77;;;1.50;;
16304;SDS011;8261;47.678;-122.174;2022-07-01T08:25:32;1.47;;;1.37;;
16304;SDS011;8261;47.678;-122.174;2022-07-01T08:28:13;2.00;;;1.53;;
16304;SDS011;8261;47.678;-122.174;2022-07-01T08:30:50;1.80;;;1.13;;
16304;SDS011;8261;47.678;-122.174;2022-07-01T08:33:41;2.17;;;1.47;;
16304;SDS011;8261;47.678;-122.174;2022-07-01T08:36:49;1.67;;;1.20;;
16304;SDS011;8261;47.678;-122.174;2022-07-01T08:39:34;5.20;;;1.53;;
16304;SDS011;8261;47.678;-122.174;2022-07-01T08:42:24;2.90;;;1.87;;
16304;SDS011;8261;47.678;-122.174;2022-07-01T08:45:28;4.43;;;1.40;;
16304;SDS011;8261;47.678;-122.174;2022-07-01T08:48:04;2.10;;;1.47;;
16304;SDS011;8261;47.678;-122.174;2022-07-01T08:50:41;1.60;;;1.50;;
16304;SDS011;8261;47.678;-122.174;2022-07-01T08:53:13;2.37;;;1.33;;
16304;SDS011;8261;47.678;-122.174;2022-07-01T08:55:46;3.00;;;1.70;;
16304;SDS011;8261;47.678;-122.174;2022-07-01T08:58:34;3.17;;;1.30;;
16304;SDS011;8261;47.678;-122.174;2022-07-01T09:01:13;2.70;;;1.70;;
16304;SDS011;8261;47.678;-122.174;2022-07-01T09:03:48;1.77;;;1.53;;
16304;SDS011;8261;47.678;-122.174;2022-07-01T09:06:26;3.37;;;1.50;;
16304;SDS011;8261;47.678;-122.174;2022-07-01T09:09:09;3.63;;;1.70;;
16304;SDS011;8261;47.678;-122.174;2022-07-01T09:11:45;1.80;;;1.37;;
16304;SDS011;8261;47.678;-122.174;2022-07-01T09:14:22;3.00;;;1.70;;
16304;SDS011;8261;47.678;-122.174;2022-07-01T09:16:56;3.33;;;1.60;;
16304;SDS011;8261;47.678;-122.174;2022-07-01T09:19:31;3.73;;;1.90;;
16304;SDS011;8261;47.678;-122.174;2022-07-01T09:22:12;3.57;;;1.80;;
16304;SDS011;8261;47.678;-122.174;2022-07-01T09:24:45;2.80;;;1.40;;
16304;SDS011;8261;47.678;-122.174;2022-07-01T09:27:21;3.27;;;1.50;;
16304;SDS011;8261;47.678;-122.174;2022-07-01T09:29:56;5.07;;;1.83;;
16304;SDS011;8261;47.678;-122.174;2022-07-01T09:32:29;3.10;;;1.77;;
16304;SDS011;8261;47.678;-122.174;2022-07-01T09:35:03;1.97;;;1.73;;
16304;SDS011;8261;47.678;-122.174;2022-07-01T09:37:36;1.80;;;1.60;;
16304;SDS011;8261;47.678;-122.174;2022-07-01T09:40:10;2.27;;;1.73;;
16304;SDS011;8261;47.678;-122.174;2022-07-01T09:42:43;1.80;;;1.70;;
16304;SDS011;8261;47.678;-122.174;2022-07-01T09:45:17;2.93;;;1.97;;
16304;SDS011;8261;47.678;-122.174;2022-07-01T09:47:54;2.13;;;1.50;;
16304;SDS011;8261;47.678;-122.174;2022-07-01T09:50:33;3.43;;;1.87;;
16304;SDS011;8261;47.678;-122.174;2022-07-01T09:53:08;2.30;;;1.80;;
16304;SDS011;8261;47.678;-122.174;2022-07-01T09:55:40;2.70;;;1.60;;
16304;SDS011;8261;47.678;-122.174;2022-07-01T09:58:13;2.87;;;1.90;;
16304;SDS011;8261;47.678;-122.174;2022-07-01T10:00:57;2.30;;;1.80;;
16304;SDS011;8261;47.678;-122.174;2022-07-01T10:03:31;2.60;;;2.40;;
16304;SDS011;8261;47.678;-122.174;2022-07-01T10:06:16;2.87;;;1.77;;
16304;SDS011;8261;47.678;-122.174;2022-07-01T10:09:25;3.07;;;1.70;;
16304;SDS011;8261;47.678;-122.174;2022-07-01T10:12:30;2.40;;;1.80;;
16304;SDS011;8261;47.678;-122.174;2022-07-01T10:15:08;3.00;;;2.00;;
16304;SDS011;8261;47.678;-122.174;2022-07-01T10:17:43;2.47;;;1.73;;
16304;SDS011;8261;47.678;-122.174;2022-07-01T10:20:16;3.87;;;2.03;;
16304;SDS011;8261;47.678;-122.174;2022-07-01T10:22:59;1.83;;;1.70;;
16304;SDS011;8261;47.678;-122.174;2022-07-01T10:25:39;2.73;;;1.53;;
16304;SDS011;8261;47.678;-122.174;2022-07-01T10:28:15;4.23;;;2.00;;
16304;SDS011;8261;47.678;-122.174;2022-07-01T10:30:55;2.63;;;2.10;;
16304;SDS011;8261;47.678;-122.174;2022-07-01T10:33:32;3.30;;;1.70;;
16304;SDS011;8261;47.678;-122.174;2022-07-01T10:36:09;4.87;;;2.00;;
16304;SDS011;8261;47.678;-122.174;2022-07-01T10:42:09;2.73;;;2.00;;
16304;SDS011;8261;47.678;-122.174;2022-07-01T10:45:06;2.87;;;1.90;;
16304;SDS011;8261;47.678;-122.174;2022-07-01T10:47:41;2.53;;;1.70;;
16304;SDS011;8261;47.678;-122.174;2022-07-01T10:50:14;2.13;;;1.77;;
16304;SDS011;8261;47.678;-122.174;2022-07-01T10:53:00;2.57;;;1.70;;
16304;SDS011;8261;47.678;-122.174;2022-07-01T10:55:37;3.20;;;2.10;;
16304;SDS011;8261;47.678;-122.174;2022-07-01T10:58:27;3.60;;;1.50;;
16304;SDS011;8261;47.678;-122.174;2022-07-01T11:01:11;2.20;;;1.77;;
16304;SDS011;8261;47.678;-122.174;2022-07-01T11:03:43;3.67;;;1.97;;
16304;SDS011;8261;47.678;-122.174;2022-07-01T11:06:18;3.43;;;1.70;;
16304;SDS011;8261;47.678;-122.174;2022-07-01T11:08:53;2.20;;;1.80;;
16304;SDS011;8261;47.678;-122.174;2022-07-01T11:11:25;2.40;;;1.83;;
16304;SDS011;8261;47.678;-122.174;2022-07-01T11:13:59;2.80;;;1.87;;
16304;SDS011;8261;47.678;-122.174;2022-07-01T11:16:43;2.23;;;1.57;;
16304;SDS011;8261;47.678;-122.174;2022-07-01T11:19:17;1.80;;;1.67;;
16304;SDS011;8261;47.678;-122.174;2022-07-01T11:21:49;1.87;;;1.70;;
16304;SDS011;8261;47.678;-122.174;2022-07-01T11:24:22;2.83;;;1.70;;
16304;SDS011;8261;47.678;-122.174;2022-07-01T11:26:54;3.07;;;1.77;;
16304;SDS011;8261;47.678;-122.174;2022-07-01T11:29:33;3.40;;;1.80;;
16304;SDS011;8261;47.678;-122.174;2022-07-01T11:32:07;4.13;;;2.00;;
16304;SDS011;8261;47.678;-122.174;2022-07-01T11:34:39;4.10;;;1.80;;
16304;SDS011;8261;47.678;-122.174;2022-07-01T11:37:12;3.17;;;1.80;;
16304;SDS011;8261;47.678;-122.174;2022-07-01T11:40:05;3.00;;;1.70;;
16304;SDS011;8261;47.678;-122.174;2022-07-01T11:42:42;5.10;;;1.80;;
16304;SDS011;8261;47.678;-122.174;2022-07-01T11:45:24;5.03;;;2.13;;
16304;SDS011;8261;47.678;-122.174;2022-07-01T11:48:27;5.03;;;1.87;;
16304;SDS011;8261;47.678;-122.174;2022-07-01T11:51:09;4.93;;;1.83;;
16304;SDS011;8261;47.678;-122.174;2022-07-01T11:53:48;2.83;;;1.80;;
16304;SDS011;8261;47.678;-122.174;2022-07-01T11:56:29;2.43;;;1.90;;
16304;SDS011;8261;47.678;-122.174;2022-07-01T11:59:08;3.13;;;1.80;;
16304;SDS011;8261;47.678;-122.174;2022-07-01T12:04:45;2.97;;;2.00;;
16304;SDS011;8261;47.678;-122.174;2022-07-01T12:07:20;3.83;;;2.13;;
16304;SDS011;8261;47.678;-122.174;2022-07-01T12:09:53;2.00;;;1.60;;
16304;SDS011;8261;47.678;-122.174;2022-07-01T12:12:39;4.87;;;1.97;;
16304;SDS011;8261;47.678;-122.174;2022-07-01T12:15:13;2.80;;;2.17;;
16304;SDS011;8261;47.678;-122.174;2022-07-01T12:17:47;2.97;;;1.90;;
16304;SDS011;8261;47.678;-122.174;2022-07-01T12:20:30;3.50;;;1.87;;
16304;SDS011;8261;47.678;-122.174;2022-07-01T12:23:12;3.90;;;2.23;;
16304;SDS011;8261;47.678;-122.174;2022-07-01T12:25:50;2.77;;;2.07;;
16304;SDS011;8261;47.678;-122.174;2022-07-01T12:28:27;4.33;;;2.10;;
16304;SDS011;8261;47.678;-122.174;2022-07-01T12:31:01;2.10;;;1.90;;
16304;SDS011;8261;47.678;-122.174;2022-07-01T12:33:38;2.17;;;1.83;;
16304;SDS011;8261;47.678;-122.174;2022-07-01T12:36:32;3.40;;;1.63;;
16304;SDS011;8261;47.678;-122.174;2022-07-01T12:39:04;5.40;;;1.80;;
16304;SDS011;8261;47.678;-122.174;2022-07-01T12:41:37;3.93;;;1.80;;
16304;SDS011;8261;47.678;-122.174;2022-07-01T12:44:19;5.03;;;2.10;;
16304;SDS011;8261;47.678;-122.174;2022-07-01T12:46:54;2.67;;;1.60;;
16304;SDS011;8261;47.678;-122.174;2022-07-01T12:49:31;3.50;;;1.70;;
16304;SDS011;8261;47.678;-122.174;2022-07-01T12:52:06;1.83;;;1.73;;
16304;SDS011;8261;47.678;-122.174;2022-07-01T12:54:55;2.07;;;1.70;;
16304;SDS011;8261;47.678;-122.174;2022-07-01T12:57:29;4.53;;;2.27;;
16304;SDS011;8261;47.678;-122.174;2022-07-01T13:00:06;2.80;;;1.97;;
16304;SDS011;8261;47.678;-122.174;2022-07-01T13:02:43;2.70;;;1.97;;
16304;SDS011;8261;47.678;-122.174;2022-07-01T13:05:25;2.97;;;1.97;;
16304;SDS011;8261;47.678;-122.174;2022-07-01T13:07:58;2.33;;;1.97;;
16304;SDS011;8261;47.678;-122.174;2022-07-01T13:10:33;3.13;;;1.83;;
16304;SDS011;8261;47.678;-122.174;2022-07-01T13:13:08;5.03;;;2.10;;
16304;SDS011;8261;47.678;-122.174;2022-07-01T13:15:40;3.83;;;2.27;;
16304;SDS011;8261;47.678;-122.174;2022-07-01T13:18:25;3.10;;;1.90;;
16304;SDS011;8261;47.678;-122.174;2022-07-01T13:21:01;3.70;;;2.20;;
16304;SDS011;8261;47.678;-122.174;2022-07-01T13:23:32;3.53;;;2.20;;
16304;SDS011;8261;47.678;-122.174;2022-07-01T13:26:10;3.23;;;2.17;;
16304;SDS011;8261;47.678;-122.174;2022-07-01T13:28:41;2.33;;;1.83;;
16304;SDS011;8261;47.678;-122.174;2022-07-01T13:31:13;3.20;;;2.00;;
16304;SDS011;8261;47.678;-122.174;2022-07-01T13:33:54;4.90;;;2.03;;
16304;SDS011;8261;47.678;-122.174;2022-07-01T13:36:28;4.67;;;1.90;;
16304;SDS011;8261;47.678;-122.174;2022-07-01T13:38:59;2.60;;;1.90;;
16304;SDS011;8261;47.678;-122.174;2022-07-01T13:41:32;3.23;;;2.10;;
16304;SDS011;8261;47.678;-122.174;2022-07-01T13:44:05;5.97;;;2.23;;
16304;SDS011;8261;47.678;-122.174;2022-07-01T13:46:39;5.43;;;2.20;;
16304;SDS011;8261;47.678;-122.174;2022-07-01T13:49:13;3.50;;;2.13;;
16304;SDS011;8261;47.678;-122.174;2022-07-01T13:54:55;3.00;;;2.10;;
16304;SDS011;8261;47.678;-122.174;2022-07-01T13:57:32;3.03;;;1.80;;
16304;SDS011;8261;47.678;-122.174;2022-07-01T14:00:04;2.83;;;2.40;;
16304;SDS011;8261;47.678;-122.174;2022-07-01T14:02:50;4.10;;;2.10;;
16304;SDS011;8261;47.678;-122.174;2022-07-01T14:05:27;2.57;;;1.90;;
16304;SDS011;8261;47.678;-122.174;2022-07-01T14:08:03;2.27;;;2.00;;
16304;SDS011;8261;47.678;-122.174;2022-07-01T14:10:37;5.87;;;2.10;;
16304;SDS011;8261;47.678;-122.174;2022-07-01T14:13:13;1.93;;;1.83;;
16304;SDS011;8261;47.678;-122.174;2022-07-01T14:15:50;3.97;;;2.30;;
16304;SDS011;8261;47.678;-122.174;2022-07-01T14:18:36;7.03;;;2.30;;
16304;SDS011;8261;47.678;-122.174;2022-07-01T14:21:15;4.93;;;2.40;;
16304;SDS011;8261;47.678;-122.174;2022-07-01T14:23:54;3.50;;;2.20;;
16304;SDS011;8261;47.678;-122.174;2022-07-01T14:26:25;4.60;;;2.27;;
16304;SDS011;8261;47.678;-122.174;2022-07-01T14:28:57;4.07;;;2.17;;
16304;SDS011;8261;47.678;-122.174;2022-07-01T14:31:29;2.63;;;2.20;;
16304;SDS011;8261;47.678;-122.174;2022-07-01T14:34:00;4.40;;;1.97;;
16304;SDS011;8261;47.678;-122.174;2022-07-01T14:36:33;3.47;;;2.10;;
16304;SDS011;8261;47.678;-122.174;2022-07-01T14:39:08;5.97;;;2.33;;
16304;SDS011;8261;47.678;-122.174;2022-07-01T14:41:40;2.80;;;2.50;;
16304;SDS011;8261;47.678;-122.174;2022-07-01T14:44:22;2.90;;;2.37;;
16304;SDS011;8261;47.678;-122.174;2022-07-01T14:46:54;5.97;;;2.60;;
16304;SDS011;8261;47.678;-122.174;2022-07-01T14:49:26;4.10;;;2.20;;
16304;SDS011;8261;47.678;-122.174;2022-07-01T14:51:59;2.63;;;2.03;;
16304;SDS011;8261;47.678;-122.174;2022-07-01T14:54:33;2.23;;;1.80;;
16304;SDS011;8261;47.678;-122.174;2022-07-01T14:57:08;4.47;;;1.67;;
16304;SDS011;8261;47.678;-122.174;2022-07-01T14:59:42;3.47;;;1.93;;
16304;SDS011;8261;47.678;-122.174;2022-07-01T15:02:17;2.90;;;1.80;;
16304;SDS011;8261;47.678;-122.174;2022-07-01T15:04:56;1.43;;;1.30;;
16304;SDS011;8261;47.678;-122.174;2022-07-01T15:07:41;2.67;;;1.67;;
16304;SDS011;8261;47.678;-122.174;2022-07-01T15:10:46;3.03;;;1.30;;
16304;SDS011;8261;47.678;-122.174;2022-07-01T15:13:18;1.83;;;1.53;;
16304;SDS011;8261;47.678;-122.174;2022-07-01T15:15:56;3.73;;;1.60;;
16304;SDS011;8261;47.678;-122.174;2022-07-01T15:18:35;1.60;;;1.27;;
16304;SDS011;8261;47.678;-122.174;2022-07-01T15:21:22;1.90;;;1.40;;
16304;SDS011;8261;47.678;-122.174;2022-07-01T15:24:11;3.60;;;1.50;;
16304;SDS011;8261;47.678;-122.174;2022-07-01T15:40:53;6.67;;;1.60;;
16304;SDS011;8261;47.678;-122.174;2022-07-01T15:43:53;2.43;;;1.27;;
16304;SDS011;8261;47.678;-122.174;2022-07-01T15:46:55;1.63;;;1.30;;
16304;SDS011;8261;47.678;-122.174;2022-07-01T15:49:45;1.87;;;1.50;;
16304;SDS011;8261;47.678;-122.174;2022-07-01T16:09:42;3.57;;;1.60;;
16304;SDS011;8261;47.678;-122.174;2022-07-01T16:12:35;4.17;;;1.60;;
16304;SDS011;8261;47.678;-122.174;2022-07-01T16:22:14;1.97;;;1.40;;
16304;SDS011;8261;47.678;-122.174;2022-07-01T16:25:18;1.70;;;1.43;;
16304;SDS011;8261;47.678;-122.174;2022-07-01T16:28:18;2.27;;;1.70;;
16304;SDS011;8261;47.678;-122.174;2022-07-01T16:31:09;2.47;;;1.40;;
16304;SDS011;8261;47.678;-122.174;2022-07-01T16:34:10;3.00;;;1.60;;
16304;SDS011;8261;47.678;-122.174;2022-07-01T16:36:55;2.80;;;1.50;;
16304;SDS011;8261;47.678;-122.174;2022-07-01T16:39:45;3.37;;;1.80;;
16304;SDS011;8261;47.678;-122.174;2022-07-01T16:42:28;3.03;;;1.50;;
16304;SDS011;8261;47.678;-122.174;2022-07-01T16:45:08;1.87;;;1.40;;
16304;SDS011;8261;47.678;-122.174;2022-07-01T16:47:47;3.80;;;1.40;;
16304;SDS011;8261;47.678;-122.174;2022-07-01T16:50:27;2.77;;;1.70;;
16304;SDS011;8261;47.678;-122.174;2022-07-01T16:53:05;5.40;;;1.60;;
16304;SDS011;8261;47.678;-122.174;2022-07-01T16:55:43;2.57;;;1.70;;
16304;SDS011;8261;47.678;-122.174;2022-07-01T16:58:19;3.80;;;2.07;;
16304;SDS011;8261;47.678;-122.174;2022-07-01T17:00:54;2.50;;;1.63;;
16304;SDS011;8261;47.678;-122.174;2022-07-01T17:03:26;2.73;;;1.60;;
16304;SDS011;8261;47.678;-122.174;2022-07-01T17:06:18;6.20;;;1.33;;